createdAt,value
2017-08-13T00:00:19.733Z,3.10
2017-08-13T00:02:47.247Z,2.97
2017-08-13T00:05:14.730Z,2.37
2017-08-13T00:07:42.227Z,2.40
2017-08-13T00:10:09.771Z,3.00
2017-08-13T00:12:37.250Z,3.00
2017-08-13T00:15:04.768Z,2.30
2017-08-13T00:17:32.301Z,2.87
2017-08-13T00:19:59.836Z,2.30
2017-08-13T00:22:27.308Z,2.07
2017-08-13T00:24:54.821Z,2.30
2017-08-13T00:27:22.288Z,1.93
2017-08-13T00:29:49.772Z,2.20
2017-08-13T00:32:17.288Z,2.20
2017-08-13T00:34:44.768Z,2.10
2017-08-13T00:37:12.260Z,2.20
2017-08-13T00:39:39.773Z,2.30
2017-08-13T00:42:07.336Z,2.30
2017-08-13T00:44:34.840Z,2.30
2017-08-13T00:47:02.376Z,2.20
2017-08-13T00:49:29.886Z,2.30
2017-08-13T00:51:57.381Z,2.27
2017-08-13T00:54:24.947Z,2.40
2017-08-13T00:56:52.445Z,2.20
2017-08-13T00:59:19.922Z,2.10
2017-08-13T01:01:47.480Z,2.10
2017-08-13T01:04:14.980Z,1.93
2017-08-13T01:06:42.517Z,1.90
2017-08-13T01:09:10.057Z,2.13
2017-08-13T01:11:37.533Z,2.13
2017-08-13T01:14:05.017Z,1.80
2017-08-13T01:16:32.525Z,1.90
2017-08-13T01:19:00.076Z,2.03
2017-08-13T01:21:27.578Z,2.00
2017-08-13T01:23:55.106Z,2.07
2017-08-13T01:26:22.579Z,2.30
2017-08-13T01:28:50.121Z,2.00
2017-08-13T01:31:17.656Z,2.30
2017-08-13T01:33:45.129Z,2.40
2017-08-13T01:36:12.629Z,2.63
2017-08-13T01:38:40.186Z,2.20
2017-08-13T01:41:07.657Z,2.00
2017-08-13T01:43:35.140Z,2.00
2017-08-13T01:46:02.657Z,2.13
2017-08-13T01:48:30.162Z,2.17
2017-08-13T01:50:57.642Z,2.10
2017-08-13T01:53:25.315Z,2.07
2017-08-13T01:55:52.867Z,2.13
2017-08-13T01:58:20.349Z,2.23
2017-08-13T02:00:47.897Z,2.10
2017-08-13T02:03:15.384Z,2.10
2017-08-13T02:05:42.889Z,2.20
2017-08-13T02:08:10.428Z,1.93
2017-08-13T02:10:37.919Z,2.47
2017-08-13T02:13:05.448Z,2.17
2017-08-13T02:15:32.969Z,2.30
2017-08-13T02:18:00.466Z,2.17
2017-08-13T02:20:27.951Z,2.10
2017-08-13T02:22:55.492Z,1.77
2017-08-13T02:25:22.987Z,2.03
2017-08-13T02:27:50.554Z,1.80
2017-08-13T02:30:18.106Z,2.20
2017-08-13T02:32:45.569Z,2.00
2017-08-13T02:35:13.053Z,2.10
2017-08-13T02:37:40.557Z,1.90
2017-08-13T02:40:08.148Z,1.97
2017-08-13T02:42:35.704Z,2.10
2017-08-13T02:45:03.230Z,2.10
2017-08-13T02:47:30.792Z,1.93
2017-08-13T02:49:58.296Z,2.00
2017-08-13T02:52:25.823Z,2.03
2017-08-13T02:54:53.294Z,1.80
2017-08-13T02:57:20.761Z,1.70
2017-08-13T02:59:48.297Z,2.03
2017-08-13T03:02:15.060Z,1.90
2017-08-13T03:04:41.865Z,1.83
2017-08-13T03:07:08.700Z,2.30
2017-08-13T03:09:35.481Z,1.73
2017-08-13T03:12:02.303Z,2.17
2017-08-13T03:14:29.123Z,1.60
2017-08-13T03:16:55.896Z,1.70
2017-08-13T03:19:22.661Z,1.63
2017-08-13T03:21:49.570Z,1.53
2017-08-13T03:24:16.337Z,1.50
2017-08-13T03:26:43.128Z,1.77
2017-08-13T03:29:09.931Z,1.60
2017-08-13T03:31:36.708Z,1.60
2017-08-13T03:34:03.487Z,1.40
2017-08-13T03:36:30.358Z,1.40
2017-08-13T03:38:57.189Z,1.33
2017-08-13T03:41:23.948Z,1.90
2017-08-13T03:43:50.816Z,1.47
2017-08-13T03:46:17.667Z,1.80
2017-08-13T03:48:44.465Z,1.43
2017-08-13T03:51:11.277Z,1.50
2017-08-13T03:53:38.046Z,1.43
2017-08-13T03:56:04.808Z,1.70
2017-08-13T03:58:31.635Z,1.43
2017-08-13T04:00:58.404Z,1.40
2017-08-13T04:03:25.170Z,1.50
2017-08-13T04:05:51.991Z,1.50
2017-08-13T04:08:18.740Z,1.30
2017-08-13T04:10:45.525Z,1.40
2017-08-13T04:13:12.320Z,1.40
2017-08-13T04:15:39.152Z,1.40
2017-08-13T04:18:05.951Z,1.37
2017-08-13T04:20:32.852Z,1.87
2017-08-13T04:22:59.603Z,1.30
2017-08-13T04:25:26.360Z,1.40
2017-08-13T04:27:53.191Z,1.23
2017-08-13T04:30:19.956Z,1.47
2017-08-13T04:32:46.731Z,1.50
2017-08-13T04:35:13.541Z,1.50
2017-08-13T04:37:40.310Z,1.20
2017-08-13T04:40:07.086Z,1.50
2017-08-13T04:42:33.924Z,1.40
2017-08-13T04:45:00.693Z,1.50
2017-08-13T04:47:27.452Z,1.73
2017-08-13T04:49:54.321Z,1.50
2017-08-13T04:52:21.125Z,2.07
2017-08-13T04:54:47.887Z,1.53
2017-08-13T04:57:14.712Z,1.40
2017-08-13T04:59:41.546Z,1.70
2017-08-13T05:02:08.320Z,1.60
2017-08-13T05:04:35.202Z,2.10
2017-08-13T05:07:01.965Z,1.63
2017-08-13T05:09:28.763Z,1.60
2017-08-13T05:11:55.640Z,1.60
2017-08-13T05:14:22.459Z,1.60
2017-08-13T05:16:49.243Z,1.60
2017-08-13T05:19:16.063Z,1.60
2017-08-13T05:21:42.884Z,2.57
2017-08-13T05:24:09.714Z,2.53
2017-08-13T05:26:36.515Z,2.10
2017-08-13T05:29:03.289Z,2.20
2017-08-13T05:31:30.082Z,1.60
2017-08-13T05:33:56.880Z,1.80
2017-08-13T05:36:23.631Z,1.47
2017-08-13T05:38:50.403Z,1.60
2017-08-13T05:41:17.218Z,1.73
2017-08-13T05:43:44.000Z,1.63
2017-08-13T05:46:10.760Z,1.60
2017-08-13T05:48:37.627Z,1.50
2017-08-13T05:51:04.396Z,1.80
2017-08-13T05:53:31.265Z,1.90
2017-08-13T05:55:58.147Z,1.93
2017-08-13T05:58:24.978Z,1.70
2017-08-13T06:00:51.827Z,2.20
2017-08-13T06:03:18.732Z,2.17
2017-08-13T06:05:45.519Z,2.33
2017-08-13T06:08:12.314Z,2.33
2017-08-13T06:10:39.116Z,2.40
2017-08-13T06:13:05.880Z,2.00
2017-08-13T06:15:32.673Z,2.60
2017-08-13T06:17:59.497Z,1.97
2017-08-13T06:20:26.259Z,2.10
2017-08-13T06:22:53.101Z,2.50
2017-08-13T06:25:19.907Z,2.17
2017-08-13T06:27:46.673Z,2.33
2017-08-13T06:30:13.433Z,3.10
2017-08-13T06:32:40.243Z,2.73
2017-08-13T06:35:07.079Z,3.30
2017-08-13T06:37:33.863Z,3.73
2017-08-13T06:40:00.679Z,3.40
2017-08-13T06:42:27.445Z,3.70
2017-08-13T06:44:54.227Z,3.80
2017-08-13T06:47:21.037Z,4.17
2017-08-13T06:49:47.805Z,4.67
2017-08-13T06:52:14.580Z,4.83
2017-08-13T06:54:41.404Z,4.80
2017-08-13T06:57:08.204Z,5.40
2017-08-13T06:59:35.037Z,4.20
2017-08-13T07:02:01.923Z,4.33
2017-08-13T07:04:28.721Z,4.03
2017-08-13T07:06:55.536Z,4.40
2017-08-13T07:09:22.426Z,4.90
2017-08-13T07:11:49.205Z,5.40
2017-08-13T07:14:16.041Z,4.80
2017-08-13T07:16:42.926Z,4.93
2017-08-13T07:19:09.680Z,3.70
2017-08-13T07:21:36.469Z,3.70
2017-08-13T07:24:03.293Z,3.92
2017-08-13T07:26:30.142Z,4.35
2017-08-13T07:28:56.938Z,4.70
2017-08-13T07:31:23.757Z,3.83
2017-08-13T07:33:50.593Z,4.73
2017-08-13T07:36:17.428Z,4.27
2017-08-13T07:38:44.243Z,4.17
2017-08-13T07:41:11.004Z,3.43
2017-08-13T07:43:37.862Z,3.83
2017-08-13T07:46:04.665Z,3.60
2017-08-13T07:48:31.575Z,3.77
2017-08-13T07:50:58.376Z,3.10
2017-08-13T07:53:25.182Z,3.53
2017-08-13T07:55:51.949Z,3.10
2017-08-13T07:58:18.732Z,3.30
2017-08-13T08:00:45.555Z,3.60
2017-08-13T08:03:12.339Z,3.03
2017-08-13T08:05:39.457Z,3.00
2017-08-13T08:08:06.327Z,2.90
2017-08-13T08:10:33.109Z,2.83
2017-08-13T08:12:59.897Z,3.23
2017-08-13T08:15:26.736Z,3.37
2017-08-13T08:17:53.516Z,3.37
2017-08-13T08:20:20.360Z,3.20
2017-08-13T08:22:47.189Z,3.00
2017-08-13T08:25:13.975Z,3.07
2017-08-13T08:27:40.813Z,2.77
2017-08-13T08:30:07.788Z,2.87
2017-08-13T08:32:34.548Z,2.90
2017-08-13T08:35:01.317Z,2.80
2017-08-13T08:37:28.154Z,2.53
2017-08-13T08:39:54.958Z,2.70
2017-08-13T08:42:21.729Z,4.80
2017-08-13T08:44:48.602Z,3.47
2017-08-13T08:47:15.451Z,2.90
2017-08-13T08:49:42.207Z,2.40
2017-08-13T08:52:09.038Z,2.60
2017-08-13T08:54:35.894Z,2.70
2017-08-13T08:57:02.677Z,2.70
2017-08-13T08:59:29.576Z,2.97
2017-08-13T09:01:56.349Z,2.30
2017-08-13T09:04:23.128Z,2.50
2017-08-13T09:06:49.947Z,2.87
2017-08-13T09:09:16.732Z,2.50
2017-08-13T09:11:43.507Z,3.00
2017-08-13T09:14:10.302Z,3.20
2017-08-13T09:16:37.065Z,2.97
2017-08-13T09:19:03.891Z,3.30
2017-08-13T09:21:30.732Z,2.57
2017-08-13T09:23:57.596Z,2.37
2017-08-13T09:26:24.451Z,2.67
2017-08-13T09:28:51.291Z,2.27
2017-08-13T09:31:18.052Z,2.40
2017-08-13T09:33:44.836Z,2.10
2017-08-13T09:36:11.660Z,2.40
2017-08-13T09:38:38.424Z,2.47
2017-08-13T09:41:05.189Z,2.23
2017-08-13T09:43:32.063Z,2.10
2017-08-13T09:45:58.852Z,2.20
2017-08-13T09:48:25.616Z,2.63
2017-08-13T09:50:52.493Z,2.83
2017-08-13T09:53:19.388Z,2.80
2017-08-13T09:55:46.215Z,2.80
2017-08-13T09:58:13.100Z,2.40
2017-08-13T10:00:39.911Z,3.40
2017-08-13T10:03:06.727Z,2.77
2017-08-13T10:05:33.586Z,2.40
2017-08-13T10:08:00.436Z,2.17
2017-08-13T10:10:27.270Z,2.30
2017-08-13T10:12:54.064Z,2.37
2017-08-13T10:15:20.841Z,2.40
2017-08-13T10:17:47.674Z,2.70
2017-08-13T10:20:14.494Z,2.60
2017-08-13T10:22:41.273Z,2.57
2017-08-13T10:25:08.063Z,2.40
2017-08-13T10:27:34.893Z,2.57
2017-08-13T10:30:01.685Z,2.47
2017-08-13T10:32:28.463Z,2.60
2017-08-13T10:34:55.262Z,4.40
2017-08-13T10:37:22.051Z,5.00
2017-08-13T10:39:48.882Z,4.47
2017-08-13T10:42:15.689Z,3.17
2017-08-13T10:44:42.494Z,2.47
2017-08-13T10:47:09.358Z,2.43
2017-08-13T10:49:36.171Z,2.50
2017-08-13T10:52:02.968Z,2.30
2017-08-13T10:54:29.763Z,2.90
2017-08-13T10:56:56.656Z,2.93
2017-08-13T10:59:23.435Z,2.70
2017-08-13T11:01:50.203Z,2.60
2017-08-13T11:04:17.025Z,2.80
2017-08-13T11:06:43.824Z,2.80
2017-08-13T11:09:10.662Z,2.40
2017-08-13T11:11:37.460Z,2.60
2017-08-13T11:14:04.230Z,2.93
2017-08-13T11:16:31.070Z,2.90
2017-08-13T11:18:58.112Z,3.10
2017-08-13T11:21:24.878Z,3.60
2017-08-13T11:23:51.668Z,3.50
2017-08-13T11:26:18.477Z,4.20
2017-08-13T11:28:45.263Z,4.60
2017-08-13T11:31:12.039Z,4.70
2017-08-13T11:33:38.884Z,4.80
2017-08-13T11:36:05.645Z,3.83
2017-08-13T11:38:32.482Z,4.07
2017-08-13T11:40:59.354Z,3.33
2017-08-13T11:43:26.122Z,3.30
2017-08-13T11:45:52.879Z,3.20
2017-08-13T11:48:19.688Z,2.60
2017-08-13T11:50:46.476Z,3.60
2017-08-13T11:53:13.272Z,3.53
2017-08-13T11:55:40.081Z,3.70
2017-08-13T11:58:06.863Z,3.80
2017-08-13T12:00:33.703Z,4.23
2017-08-13T12:03:00.572Z,3.60
2017-08-13T12:05:27.463Z,4.30
2017-08-13T12:07:54.227Z,4.10
2017-08-13T12:10:21.024Z,3.83
2017-08-13T12:12:47.854Z,4.00
2017-08-13T12:15:14.616Z,3.50
2017-08-13T12:17:41.769Z,3.10
2017-08-13T12:20:08.528Z,3.83
2017-08-13T12:22:35.319Z,4.20
2017-08-13T12:25:02.126Z,4.77
2017-08-13T12:27:28.925Z,5.03
2017-08-13T12:29:55.698Z,5.07
2017-08-13T12:32:22.573Z,5.10
2017-08-13T12:34:49.360Z,4.47
2017-08-13T12:37:16.147Z,4.37
2017-08-13T12:39:42.985Z,3.57
2017-08-13T12:42:09.782Z,3.47
2017-08-13T12:44:36.540Z,3.53
2017-08-13T12:47:03.339Z,3.47
2017-08-13T12:49:30.123Z,3.50
2017-08-13T12:51:56.962Z,3.70
2017-08-13T12:54:23.784Z,4.50
2017-08-13T12:56:50.555Z,4.67
2017-08-13T12:59:17.324Z,4.87
2017-08-13T13:01:44.287Z,5.20
2017-08-13T13:04:11.071Z,6.20
2017-08-13T13:06:37.849Z,5.70
2017-08-13T13:09:04.658Z,5.27
2017-08-13T13:11:31.423Z,6.87
2017-08-13T13:13:58.192Z,7.07
2017-08-13T13:16:25.016Z,6.57
2017-08-13T13:18:52.378Z,6.73
2017-08-13T13:21:19.161Z,6.93
2017-08-13T13:23:46.852Z,7.80
2017-08-13T13:26:13.622Z,7.77
2017-08-13T13:28:40.574Z,7.20
2017-08-13T13:31:07.462Z,7.30
2017-08-13T13:33:34.301Z,8.03
2017-08-13T13:36:01.088Z,7.57
2017-08-13T13:38:27.932Z,8.30
2017-08-13T13:40:54.791Z,7.70
2017-08-13T13:43:21.624Z,8.50
2017-08-13T13:45:48.454Z,8.30
2017-08-13T13:48:15.293Z,8.30
2017-08-13T13:50:42.084Z,8.83
2017-08-13T13:53:08.888Z,10.87
2017-08-13T13:55:36.505Z,8.40
2017-08-13T13:58:03.273Z,8.77
2017-08-13T14:00:30.147Z,8.20
2017-08-13T14:02:56.930Z,9.00
2017-08-13T14:05:23.740Z,9.07
2017-08-13T14:07:50.559Z,8.13
2017-08-13T14:10:17.397Z,9.00
2017-08-13T14:12:44.239Z,8.20
2017-08-13T14:15:11.086Z,7.47
2017-08-13T14:17:37.923Z,8.60
2017-08-13T14:20:04.761Z,9.50
2017-08-13T14:22:31.645Z,9.30
2017-08-13T14:24:58.432Z,9.37
2017-08-13T14:27:25.285Z,9.30
2017-08-13T14:29:52.162Z,9.40
2017-08-13T14:32:19.014Z,10.27
2017-08-13T14:34:45.826Z,9.57
2017-08-13T14:37:12.727Z,9.20
2017-08-13T14:39:39.720Z,9.17
2017-08-13T14:42:06.512Z,9.57
2017-08-13T14:44:33.394Z,10.27
2017-08-13T14:47:00.247Z,10.60
2017-08-13T14:49:27.089Z,10.13
2017-08-13T14:51:53.949Z,10.00
2017-08-13T14:54:20.759Z,9.50
2017-08-13T14:56:47.539Z,10.63
2017-08-13T14:59:14.365Z,9.77
2017-08-13T15:01:41.146Z,10.10
2017-08-13T15:04:08.304Z,10.40
2017-08-13T15:06:35.135Z,10.73
2017-08-13T15:09:01.917Z,10.73
2017-08-13T15:11:28.806Z,11.87
2017-08-13T15:13:55.640Z,11.10
2017-08-13T15:16:22.438Z,11.00
2017-08-13T15:18:49.212Z,11.17
2017-08-13T15:21:16.035Z,11.87
2017-08-13T15:23:42.887Z,10.97
2017-08-13T15:26:09.677Z,11.27
2017-08-13T15:28:36.517Z,11.83
2017-08-13T15:31:03.303Z,10.80
2017-08-13T15:33:30.103Z,11.37
2017-08-13T15:35:56.936Z,11.67
2017-08-13T15:38:23.712Z,11.20
2017-08-13T15:40:50.559Z,12.00
2017-08-13T15:43:17.372Z,10.70
2017-08-13T15:45:44.133Z,11.33
2017-08-13T15:48:10.979Z,11.10
2017-08-13T15:50:37.792Z,11.07
2017-08-13T15:53:04.564Z,10.87
2017-08-13T15:55:31.328Z,11.70
2017-08-13T15:57:58.223Z,11.03
2017-08-13T16:00:24.988Z,11.20
2017-08-13T16:02:51.786Z,12.20
2017-08-13T16:05:18.610Z,10.40
2017-08-13T16:07:45.407Z,10.50
2017-08-13T16:10:12.175Z,11.17
2017-08-13T16:12:38.994Z,11.27
2017-08-13T16:15:05.770Z,11.57
2017-08-13T16:17:32.541Z,11.17
2017-08-13T16:19:59.359Z,11.33
2017-08-13T16:22:26.210Z,11.07
2017-08-13T16:24:52.998Z,11.30
2017-08-13T16:27:19.829Z,10.43
2017-08-13T16:29:46.611Z,10.50
2017-08-13T16:32:13.385Z,10.10
2017-08-13T16:34:40.521Z,10.70
2017-08-13T16:37:07.292Z,10.20
2017-08-13T16:39:34.073Z,10.73
2017-08-13T16:42:00.967Z,10.50
2017-08-13T16:44:27.760Z,10.23
2017-08-13T16:46:54.595Z,11.47
2017-08-13T16:49:21.445Z,10.47
2017-08-13T16:51:48.212Z,9.80
2017-08-13T16:54:15.054Z,10.20
2017-08-13T16:56:42.115Z,11.20
2017-08-13T16:59:08.970Z,10.60
2017-08-13T17:01:35.745Z,11.03
2017-08-13T17:04:02.639Z,10.67
2017-08-13T17:06:29.412Z,10.93
2017-08-13T17:08:56.197Z,11.30
2017-08-13T17:11:23.034Z,11.70
2017-08-13T17:13:49.837Z,10.33
2017-08-13T17:16:16.683Z,10.60
2017-08-13T17:18:43.505Z,11.17
2017-08-13T17:21:10.361Z,10.87
2017-08-13T17:23:37.310Z,10.63
2017-08-13T17:26:04.195Z,10.70
2017-08-13T17:28:31.006Z,13.50
2017-08-13T17:30:57.810Z,11.10
2017-08-13T17:33:24.690Z,10.90
2017-08-13T17:35:51.472Z,10.60
2017-08-13T17:38:18.257Z,11.47
2017-08-13T17:40:45.162Z,11.27
2017-08-13T17:43:12.006Z,10.67
2017-08-13T17:45:38.863Z,10.63
2017-08-13T17:48:05.766Z,10.03
2017-08-13T17:50:32.567Z,10.03
2017-08-13T17:52:59.341Z,9.90
2017-08-13T17:55:26.226Z,10.30
2017-08-13T17:57:52.992Z,10.33
2017-08-13T18:00:19.765Z,10.70
2017-08-13T18:02:46.573Z,10.63
2017-08-13T18:05:13.351Z,10.77
2017-08-13T18:07:40.196Z,11.20
2017-08-13T18:10:07.075Z,10.90
2017-08-13T18:12:33.920Z,11.57
2017-08-13T18:15:00.683Z,10.80
2017-08-13T18:17:27.511Z,10.20
2017-08-13T18:19:54.281Z,10.00
2017-08-13T18:22:21.072Z,10.50
2017-08-13T18:24:47.910Z,11.17
2017-08-13T18:27:14.786Z,11.60
2017-08-13T18:29:41.572Z,11.00
2017-08-13T18:32:08.485Z,12.00
2017-08-13T18:34:35.284Z,12.70
2017-08-13T18:37:02.135Z,10.50
2017-08-13T18:39:28.959Z,10.10
2017-08-13T18:41:55.810Z,11.10
2017-08-13T18:44:22.576Z,12.23
2017-08-13T18:46:49.471Z,11.77
2017-08-13T18:49:16.240Z,11.40
2017-08-13T18:51:43.036Z,10.23
2017-08-13T18:54:09.919Z,9.57
2017-08-13T18:56:36.759Z,10.27
2017-08-13T18:59:03.629Z,10.27
2017-08-13T19:01:30.457Z,9.83
2017-08-13T19:03:57.965Z,14.90
2017-08-13T19:06:24.817Z,14.47
2017-08-13T19:08:51.643Z,15.40
2017-08-13T19:11:19.506Z,13.70
2017-08-13T19:13:46.304Z,11.90
2017-08-13T19:16:13.207Z,12.53
2017-08-13T19:18:39.990Z,12.43
2017-08-13T19:21:06.846Z,12.00
2017-08-13T19:23:33.735Z,12.10
2017-08-13T19:26:00.499Z,11.27
2017-08-13T19:28:27.272Z,12.10
2017-08-13T19:30:54.095Z,12.50
2017-08-13T19:33:20.860Z,13.40
2017-08-13T19:35:48.177Z,12.50
2017-08-13T19:38:15.019Z,12.17
2017-08-13T19:40:41.793Z,13.03
2017-08-13T19:43:08.575Z,12.63
2017-08-13T19:45:35.387Z,12.63
2017-08-13T19:48:02.188Z,13.20
2017-08-13T19:50:28.996Z,12.43
2017-08-13T19:52:55.869Z,12.10
2017-08-13T19:55:22.658Z,12.60
2017-08-13T19:57:49.475Z,12.60
2017-08-13T20:00:16.286Z,13.50
2017-08-13T20:02:43.150Z,13.90
2017-08-13T20:05:09.999Z,12.13
2017-08-13T20:07:36.901Z,13.73
2017-08-13T20:10:03.705Z,14.80
2017-08-13T20:12:30.474Z,14.47
2017-08-13T20:14:57.355Z,13.77
2017-08-13T20:17:24.202Z,14.00
2017-08-13T20:19:51.052Z,14.60
2017-08-13T20:22:17.947Z,15.03
2017-08-13T20:24:44.716Z,14.63
2017-08-13T20:27:11.505Z,14.50
2017-08-13T20:29:39.174Z,13.20
2017-08-13T20:32:06.010Z,13.10
2017-08-13T20:34:32.862Z,13.67
2017-08-13T20:36:59.674Z,13.73
2017-08-13T20:39:26.484Z,14.23
2017-08-13T20:41:53.274Z,13.00
2017-08-13T20:44:20.093Z,13.70
2017-08-13T20:46:46.895Z,12.87
2017-08-13T20:49:13.748Z,13.83
2017-08-13T20:51:40.731Z,13.00
2017-08-13T20:54:07.513Z,12.57
2017-08-13T20:56:34.354Z,12.40
2017-08-13T20:59:01.312Z,12.00
2017-08-13T21:01:28.159Z,12.70
2017-08-13T21:03:54.925Z,12.33
2017-08-13T21:06:21.742Z,11.57
2017-08-13T21:08:48.510Z,13.10
2017-08-13T21:11:15.288Z,12.30
2017-08-13T21:13:42.101Z,13.00
2017-08-13T21:16:08.872Z,12.37
2017-08-13T21:18:35.643Z,12.70
2017-08-13T21:21:02.742Z,11.77
2017-08-13T21:23:29.586Z,11.90
2017-08-13T21:25:56.357Z,11.90
2017-08-13T21:28:23.182Z,11.53
2017-08-13T21:30:49.954Z,11.30
2017-08-13T21:33:16.747Z,11.13
2017-08-13T21:35:43.626Z,11.80
2017-08-13T21:38:10.404Z,11.20
2017-08-13T21:40:37.207Z,12.57
2017-08-13T21:43:04.024Z,11.43
2017-08-13T21:45:30.820Z,11.17
2017-08-13T21:47:57.660Z,12.80
2017-08-13T21:50:24.540Z,11.00
2017-08-13T21:52:51.382Z,11.27
2017-08-13T21:55:18.219Z,10.63
2017-08-13T21:57:45.046Z,10.47
2017-08-13T22:00:11.896Z,10.63
2017-08-13T22:02:38.661Z,11.00
2017-08-13T22:05:05.535Z,10.60
2017-08-13T22:07:32.296Z,10.73
2017-08-13T22:09:59.060Z,11.40
2017-08-13T22:12:25.864Z,10.50
2017-08-13T22:14:52.712Z,10.33
2017-08-13T22:17:19.589Z,9.90
2017-08-13T22:19:46.410Z,9.53
2017-08-13T22:22:13.181Z,9.53
2017-08-13T22:24:40.008Z,10.10
2017-08-13T22:27:06.824Z,9.87
2017-08-13T22:29:33.631Z,9.43
2017-08-13T22:32:00.416Z,10.40
2017-08-13T22:34:27.225Z,10.00
2017-08-13T22:36:54.069Z,9.53
2017-08-13T22:39:20.847Z,9.33
2017-08-13T22:41:47.659Z,9.57
2017-08-13T22:44:14.494Z,9.90
2017-08-13T22:46:41.332Z,9.00
2017-08-13T22:49:08.159Z,9.43
2017-08-13T22:51:34.954Z,9.50
2017-08-13T22:54:01.725Z,9.30
2017-08-13T22:56:28.541Z,8.60
2017-08-13T22:58:55.351Z,9.00
2017-08-13T23:01:22.112Z,8.07
2017-08-13T23:03:48.944Z,9.33
2017-08-13T23:06:15.714Z,9.00
2017-08-13T23:08:42.503Z,8.30
2017-08-13T23:11:09.305Z,8.90
2017-08-13T23:13:36.068Z,9.17
2017-08-13T23:16:02.830Z,8.80
2017-08-13T23:18:29.638Z,8.33
2017-08-13T23:20:56.443Z,8.53
2017-08-13T23:23:23.209Z,7.60
2017-08-13T23:25:50.023Z,9.23
2017-08-13T23:28:17.526Z,8.70
2017-08-13T23:30:44.323Z,9.37
2017-08-13T23:33:11.376Z,8.97
2017-08-13T23:35:38.139Z,8.10
2017-08-13T23:38:04.981Z,8.20
2017-08-13T23:40:31.808Z,9.33
2017-08-13T23:42:58.592Z,8.10
2017-08-13T23:45:25.362Z,9.03
2017-08-13T23:47:52.196Z,8.60
2017-08-13T23:50:18.962Z,8.77
2017-08-13T23:52:45.732Z,8.77
2017-08-13T23:55:12.551Z,7.87
2017-08-13T23:57:39.399Z,8.90
